sensor_id;sensor_type;location;lat;lon;timestamp;P1;durP1;ratioP1;P2;durP2;ratioP2
48685;SDS011;34485;51.536;3.816;2022-09-09T00:04:22;7.88;;;3.80;;
48685;SDS011;34485;51.536;3.816;2022-09-09T00:06:59;12.20;;;5.70;;
48685;SDS011;34485;51.536;3.816;2022-09-09T00:09:47;8.20;;;4.03;;
48685;SDS011;34485;51.536;3.816;2022-09-09T00:15:07;10.40;;;5.43;;
48685;SDS011;34485;51.536;3.816;2022-09-09T00:17:56;9.23;;;5.32;;
48685;SDS011;34485;51.536;3.816;2022-09-09T00:20:32;8.97;;;4.57;;
48685;SDS011;34485;51.536;3.816;2022-09-09T00:26:08;8.90;;;3.90;;
48685;SDS011;34485;51.536;3.816;2022-09-09T00:28:46;7.00;;;4.68;;
48685;SDS011;34485;51.536;3.816;2022-09-09T00:31:21;13.68;;;4.80;;
48685;SDS011;34485;51.536;3.816;2022-09-09T00:33:50;11.70;;;5.30;;
48685;SDS011;34485;51.536;3.816;2022-09-09T00:36:18;7.07;;;4.30;;
48685;SDS011;34485;51.536;3.816;2022-09-09T00:38:49;9.38;;;3.97;;
48685;SDS011;34485;51.536;3.816;2022-09-09T00:44:03;9.73;;;3.97;;
48685;SDS011;34485;51.536;3.816;2022-09-09T01:07:58;8.45;;;4.88;;
48685;SDS011;34485;51.536;3.816;2022-09-09T01:10:34;11.98;;;5.35;;
48685;SDS011;34485;51.536;3.816;2022-09-09T01:13:11;10.67;;;6.17;;
48685;SDS011;34485;51.536;3.816;2022-09-09T01:15:41;14.57;;;6.20;;
48685;SDS011;34485;51.536;3.816;2022-09-09T01:18:12;13.07;;;6.72;;
48685;SDS011;34485;51.536;3.816;2022-09-09T01:26:23;16.73;;;6.97;;
48685;SDS011;34485;51.536;3.816;2022-09-09T01:28:57;12.35;;;6.10;;
48685;SDS011;34485;51.536;3.816;2022-09-09T01:31:31;13.60;;;6.30;;
48685;SDS011;34485;51.536;3.816;2022-09-09T01:34:00;11.83;;;5.53;;
48685;SDS011;34485;51.536;3.816;2022-09-09T01:36:29;8.93;;;4.93;;
48685;SDS011;34485;51.536;3.816;2022-09-09T01:38:56;7.18;;;4.22;;
48685;SDS011;34485;51.536;3.816;2022-09-09T01:41:22;12.67;;;5.30;;
48685;SDS011;34485;51.536;3.816;2022-09-09T01:43:48;9.95;;;4.03;;
48685;SDS011;34485;51.536;3.816;2022-09-09T01:46:14;11.20;;;3.67;;
48685;SDS011;34485;51.536;3.816;2022-09-09T01:48:40;6.18;;;3.38;;
48685;SDS011;34485;51.536;3.816;2022-09-09T01:51:08;8.27;;;4.38;;
48685;SDS011;34485;51.536;3.816;2022-09-09T01:53:35;10.65;;;4.10;;
48685;SDS011;34485;51.536;3.816;2022-09-09T02:04:42;10.70;;;5.55;;
48685;SDS011;34485;51.536;3.816;2022-09-09T02:07:22;13.82;;;6.25;;
48685;SDS011;34485;51.536;3.816;2022-09-09T02:09:51;16.63;;;5.57;;
48685;SDS011;34485;51.536;3.816;2022-09-09T02:12:49;10.93;;;5.90;;
48685;SDS011;34485;51.536;3.816;2022-09-09T02:18:08;12.57;;;5.50;;
48685;SDS011;34485;51.536;3.816;2022-09-09T02:20:38;13.93;;;6.05;;
48685;SDS011;34485;51.536;3.816;2022-09-09T02:23:05;9.30;;;5.60;;
48685;SDS011;34485;51.536;3.816;2022-09-09T02:25:33;8.85;;;4.47;;
48685;SDS011;34485;51.536;3.816;2022-09-09T02:28:01;14.10;;;5.18;;
48685;SDS011;34485;51.536;3.816;2022-09-09T02:30:31;12.10;;;5.07;;
48685;SDS011;34485;51.536;3.816;2022-09-09T02:32:59;10.77;;;4.40;;
48685;SDS011;34485;51.536;3.816;2022-09-09T02:35:28;8.23;;;3.47;;
48685;SDS011;34485;51.536;3.816;2022-09-09T02:37:56;9.70;;;3.47;;
48685;SDS011;34485;51.536;3.816;2022-09-09T02:40:26;7.80;;;3.25;;
48685;SDS011;34485;51.536;3.816;2022-09-09T02:42:52;8.57;;;3.50;;
48685;SDS011;34485;51.536;3.816;2022-09-09T02:45:20;5.68;;;2.42;;
48685;SDS011;34485;51.536;3.816;2022-09-09T02:48:09;7.82;;;3.40;;
48685;SDS011;34485;51.536;3.816;2022-09-09T02:50:52;5.03;;;3.17;;
48685;SDS011;34485;51.536;3.816;2022-09-09T02:53:48;7.45;;;2.95;;
48685;SDS011;34485;51.536;3.816;2022-09-09T02:56:20;9.00;;;2.87;;
48685;SDS011;34485;51.536;3.816;2022-09-09T02:58:50;4.60;;;2.65;;
48685;SDS011;34485;51.536;3.816;2022-09-09T03:01:16;6.97;;;2.58;;
48685;SDS011;34485;51.536;3.816;2022-09-09T03:03:42;8.20;;;3.28;;
48685;SDS011;34485;51.536;3.816;2022-09-09T03:06:09;6.13;;;2.30;;
48685;SDS011;34485;51.536;3.816;2022-09-09T03:08:36;5.50;;;2.15;;
48685;SDS011;34485;51.536;3.816;2022-09-09T03:11:02;5.70;;;2.05;;
48685;SDS011;34485;51.536;3.816;2022-09-09T03:13:28;5.53;;;1.95;;
48685;SDS011;34485;51.536;3.816;2022-09-09T03:15:54;7.83;;;2.97;;
48685;SDS011;34485;51.536;3.816;2022-09-09T03:18:20;8.30;;;2.72;;
48685;SDS011;34485;51.536;3.816;2022-09-09T03:20:45;8.33;;;2.70;;
48685;SDS011;34485;51.536;3.816;2022-09-09T03:23:13;5.75;;;2.50;;
48685;SDS011;34485;51.536;3.816;2022-09-09T03:25:39;12.25;;;2.97;;
48685;SDS011;34485;51.536;3.816;2022-09-09T03:28:11;10.02;;;3.20;;
48685;SDS011;34485;51.536;3.816;2022-09-09T03:30:36;4.83;;;2.97;;
48685;SDS011;34485;51.536;3.816;2022-09-09T03:33:02;8.23;;;2.92;;
48685;SDS011;34485;51.536;3.816;2022-09-09T03:35:28;4.30;;;2.28;;
48685;SDS011;34485;51.536;3.816;2022-09-09T03:37:54;7.83;;;3.00;;
48685;SDS011;34485;51.536;3.816;2022-09-09T03:40:20;8.32;;;2.58;;
48685;SDS011;34485;51.536;3.816;2022-09-09T03:42:46;11.60;;;3.20;;
48685;SDS011;34485;51.536;3.816;2022-09-09T03:45:13;9.77;;;2.22;;
48685;SDS011;34485;51.536;3.816;2022-09-09T03:47:38;7.78;;;2.67;;
48685;SDS011;34485;51.536;3.816;2022-09-09T03:50:05;10.43;;;2.13;;
48685;SDS011;34485;51.536;3.816;2022-09-09T03:52:37;5.70;;;2.42;;
48685;SDS011;34485;51.536;3.816;2022-09-09T03:55:04;9.25;;;2.33;;
48685;SDS011;34485;51.536;3.816;2022-09-09T03:57:30;5.15;;;2.60;;
48685;SDS011;34485;51.536;3.816;2022-09-09T03:59:56;6.83;;;2.17;;
48685;SDS011;34485;51.536;3.816;2022-09-09T04:02:23;5.70;;;2.45;;
48685;SDS011;34485;51.536;3.816;2022-09-09T04:04:49;11.02;;;3.25;;
48685;SDS011;34485;51.536;3.816;2022-09-09T04:07:14;13.70;;;2.70;;
48685;SDS011;34485;51.536;3.816;2022-09-09T04:09:40;5.75;;;2.70;;
48685;SDS011;34485;51.536;3.816;2022-09-09T04:12:06;10.33;;;4.20;;
48685;SDS011;34485;51.536;3.816;2022-09-09T04:14:32;12.83;;;2.63;;
48685;SDS011;34485;51.536;3.816;2022-09-09T04:16:57;9.60;;;2.63;;
48685;SDS011;34485;51.536;3.816;2022-09-09T04:19:24;10.90;;;3.23;;
48685;SDS011;34485;51.536;3.816;2022-09-09T04:21:50;8.85;;;3.13;;
48685;SDS011;34485;51.536;3.816;2022-09-09T04:24:16;13.75;;;2.88;;
48685;SDS011;34485;51.536;3.816;2022-09-09T04:26:43;7.25;;;2.53;;
48685;SDS011;34485;51.536;3.816;2022-09-09T04:29:08;8.70;;;2.97;;
48685;SDS011;34485;51.536;3.816;2022-09-09T04:31:34;6.93;;;2.85;;
48685;SDS011;34485;51.536;3.816;2022-09-09T04:34:00;12.10;;;3.60;;
48685;SDS011;34485;51.536;3.816;2022-09-09T04:36:31;6.97;;;3.83;;
48685;SDS011;34485;51.536;3.816;2022-09-09T04:38:57;5.65;;;2.92;;
48685;SDS011;34485;51.536;3.816;2022-09-09T04:41:23;10.27;;;2.90;;
48685;SDS011;34485;51.536;3.816;2022-09-09T04:43:49;9.73;;;2.85;;
48685;SDS011;34485;51.536;3.816;2022-09-09T04:46:14;10.90;;;3.00;;
48685;SDS011;34485;51.536;3.816;2022-09-09T04:48:42;5.43;;;2.90;;
48685;SDS011;34485;51.536;3.816;2022-09-09T04:51:09;7.30;;;2.63;;
48685;SDS011;34485;51.536;3.816;2022-09-09T04:53:38;12.13;;;2.83;;
48685;SDS011;34485;51.536;3.816;2022-09-09T04:56:06;14.67;;;2.87;;
48685;SDS011;34485;51.536;3.816;2022-09-09T04:58:38;10.50;;;2.90;;
48685;SDS011;34485;51.536;3.816;2022-09-09T05:01:07;7.97;;;2.60;;
48685;SDS011;34485;51.536;3.816;2022-09-09T05:03:34;9.23;;;3.05;;
48685;SDS011;34485;51.536;3.816;2022-09-09T05:06:04;11.68;;;2.70;;
48685;SDS011;34485;51.536;3.816;2022-09-09T05:08:35;10.87;;;3.43;;
48685;SDS011;34485;51.536;3.816;2022-09-09T05:13:50;9.00;;;3.10;;
48685;SDS011;34485;51.536;3.816;2022-09-09T05:16:17;10.27;;;3.17;;
48685;SDS011;34485;51.536;3.816;2022-09-09T05:18:43;6.80;;;2.72;;
48685;SDS011;34485;51.536;3.816;2022-09-09T05:21:11;9.23;;;2.63;;
48685;SDS011;34485;51.536;3.816;2022-09-09T05:23:38;14.32;;;2.75;;
48685;SDS011;34485;51.536;3.816;2022-09-09T05:26:04;6.85;;;2.60;;
48685;SDS011;34485;51.536;3.816;2022-09-09T05:28:31;11.20;;;3.53;;
48685;SDS011;34485;51.536;3.816;2022-09-09T05:31:02;12.43;;;3.30;;
48685;SDS011;34485;51.536;3.816;2022-09-09T05:33:30;12.10;;;3.50;;
48685;SDS011;34485;51.536;3.816;2022-09-09T05:36:29;12.00;;;2.97;;
48685;SDS011;34485;51.536;3.816;2022-09-09T05:38:48;9.98;;;3.17;;
48685;SDS011;34485;51.536;3.816;2022-09-09T05:41:15;11.23;;;3.00;;
48685;SDS011;34485;51.536;3.816;2022-09-09T05:43:42;10.60;;;3.07;;
48685;SDS011;34485;51.536;3.816;2022-09-09T05:46:13;13.00;;;3.17;;
48685;SDS011;34485;51.536;3.816;2022-09-09T05:48:41;5.97;;;2.60;;
48685;SDS011;34485;51.536;3.816;2022-09-09T05:51:12;11.90;;;3.22;;
48685;SDS011;34485;51.536;3.816;2022-09-09T05:53:42;7.53;;;3.10;;
48685;SDS011;34485;51.536;3.816;2022-09-09T05:56:13;8.40;;;2.93;;
48685;SDS011;34485;51.536;3.816;2022-09-09T05:58:40;6.35;;;2.70;;
48685;SDS011;34485;51.536;3.816;2022-09-09T06:01:10;16.10;;;3.35;;
48685;SDS011;34485;51.536;3.816;2022-09-09T06:03:39;8.15;;;3.40;;
48685;SDS011;34485;51.536;3.816;2022-09-09T06:06:06;9.98;;;3.03;;
48685;SDS011;34485;51.536;3.816;2022-09-09T06:08:34;9.87;;;2.90;;
48685;SDS011;34485;51.536;3.816;2022-09-09T06:11:04;10.50;;;3.97;;
48685;SDS011;34485;51.536;3.816;2022-09-09T06:13:31;9.15;;;2.40;;
48685;SDS011;34485;51.536;3.816;2022-09-09T06:15:57;6.03;;;2.78;;
48685;SDS011;34485;51.536;3.816;2022-09-09T06:18:23;7.75;;;3.65;;
48685;SDS011;34485;51.536;3.816;2022-09-09T06:20:59;8.50;;;3.00;;
48685;SDS011;34485;51.536;3.816;2022-09-09T06:23:26;8.43;;;2.75;;
48685;SDS011;34485;51.536;3.816;2022-09-09T06:26:05;8.82;;;2.10;;
48685;SDS011;34485;51.536;3.816;2022-09-09T06:28:35;8.90;;;2.97;;
48685;SDS011;34485;51.536;3.816;2022-09-09T06:31:02;10.05;;;2.60;;
48685;SDS011;34485;51.536;3.816;2022-09-09T06:33:33;7.73;;;2.40;;
48685;SDS011;34485;51.536;3.816;2022-09-09T06:36:00;4.93;;;3.05;;
48685;SDS011;34485;51.536;3.816;2022-09-09T06:38:26;12.93;;;3.17;;
48685;SDS011;34485;51.536;3.816;2022-09-09T06:40:56;7.07;;;2.75;;
48685;SDS011;34485;51.536;3.816;2022-09-09T06:43:27;7.75;;;2.72;;
48685;SDS011;34485;51.536;3.816;2022-09-09T06:45:59;8.03;;;3.27;;
48685;SDS011;34485;51.536;3.816;2022-09-09T06:48:26;8.20;;;3.17;;
48685;SDS011;34485;51.536;3.816;2022-09-09T06:51:14;6.60;;;2.30;;
48685;SDS011;34485;51.536;3.816;2022-09-09T06:53:40;7.55;;;2.88;;
48685;SDS011;34485;51.536;3.816;2022-09-09T06:58:44;8.40;;;3.37;;
48685;SDS011;34485;51.536;3.816;2022-09-09T07:01:11;7.30;;;2.92;;
48685;SDS011;34485;51.536;3.816;2022-09-09T07:03:38;5.97;;;2.67;;
48685;SDS011;34485;51.536;3.816;2022-09-09T07:06:05;10.23;;;2.63;;
48685;SDS011;34485;51.536;3.816;2022-09-09T07:08:32;7.95;;;2.33;;
48685;SDS011;34485;51.536;3.816;2022-09-09T07:11:02;8.87;;;2.90;;
48685;SDS011;34485;51.536;3.816;2022-09-09T07:13:32;6.03;;;3.30;;
48685;SDS011;34485;51.536;3.816;2022-09-09T07:16:05;11.25;;;3.28;;
48685;SDS011;34485;51.536;3.816;2022-09-09T07:18:37;7.63;;;2.63;;
48685;SDS011;34485;51.536;3.816;2022-09-09T07:21:04;9.07;;;2.40;;
48685;SDS011;34485;51.536;3.816;2022-09-09T07:23:31;9.67;;;3.33;;
48685;SDS011;34485;51.536;3.816;2022-09-09T07:25:57;5.18;;;2.72;;
48685;SDS011;34485;51.536;3.816;2022-09-09T07:28:24;5.25;;;2.00;;
48685;SDS011;34485;51.536;3.816;2022-09-09T07:30:53;7.68;;;2.80;;
48685;SDS011;34485;51.536;3.816;2022-09-09T07:33:19;10.50;;;2.90;;
48685;SDS011;34485;51.536;3.816;2022-09-09T07:35:46;9.37;;;2.20;;
48685;SDS011;34485;51.536;3.816;2022-09-09T07:38:11;5.63;;;2.58;;
48685;SDS011;34485;51.536;3.816;2022-09-09T07:40:37;7.30;;;3.70;;
48685;SDS011;34485;51.536;3.816;2022-09-09T07:43:03;7.78;;;1.83;;
48685;SDS011;34485;51.536;3.816;2022-09-09T07:45:29;9.45;;;2.97;;
48685;SDS011;34485;51.536;3.816;2022-09-09T07:47:57;12.30;;;2.13;;
48685;SDS011;34485;51.536;3.816;2022-09-09T07:50:23;4.40;;;2.10;;
48685;SDS011;34485;51.536;3.816;2022-09-09T07:52:50;5.32;;;2.22;;
48685;SDS011;34485;51.536;3.816;2022-09-09T07:55:16;8.65;;;2.42;;
48685;SDS011;34485;51.536;3.816;2022-09-09T07:57:42;5.03;;;2.43;;
48685;SDS011;34485;51.536;3.816;2022-09-09T08:00:08;6.50;;;2.33;;
48685;SDS011;34485;51.536;3.816;2022-09-09T08:02:35;5.68;;;2.28;;
48685;SDS011;34485;51.536;3.816;2022-09-09T08:05:01;13.65;;;2.58;;
48685;SDS011;34485;51.536;3.816;2022-09-09T08:07:27;5.20;;;2.00;;
48685;SDS011;34485;51.536;3.816;2022-09-09T08:09:53;4.97;;;1.60;;
48685;SDS011;34485;51.536;3.816;2022-09-09T08:12:20;7.88;;;2.10;;
48685;SDS011;34485;51.536;3.816;2022-09-09T08:14:46;5.95;;;3.10;;
48685;SDS011;34485;51.536;3.816;2022-09-09T08:17:12;7.22;;;2.95;;
48685;SDS011;34485;51.536;3.816;2022-09-09T08:19:38;7.10;;;2.50;;
48685;SDS011;34485;51.536;3.816;2022-09-09T08:22:03;5.60;;;2.23;;
48685;SDS011;34485;51.536;3.816;2022-09-09T08:24:29;5.03;;;1.50;;
48685;SDS011;34485;51.536;3.816;2022-09-09T08:26:55;4.97;;;2.17;;
48685;SDS011;34485;51.536;3.816;2022-09-09T08:29:22;12.48;;;2.58;;
48685;SDS011;34485;51.536;3.816;2022-09-09T08:31:49;10.52;;;3.47;;
48685;SDS011;34485;51.536;3.816;2022-09-09T08:34:16;10.00;;;2.25;;
48685;SDS011;34485;51.536;3.816;2022-09-09T08:36:45;4.65;;;2.20;;
48685;SDS011;34485;51.536;3.816;2022-09-09T08:39:12;7.27;;;1.70;;
48685;SDS011;34485;51.536;3.816;2022-09-09T08:47:36;5.95;;;1.90;;
48685;SDS011;34485;51.536;3.816;2022-09-09T08:50:16;7.40;;;3.00;;
48685;SDS011;34485;51.536;3.816;2022-09-09T08:55:45;3.40;;;1.95;;
48685;SDS011;34485;51.536;3.816;2022-09-09T08:58:20;4.40;;;2.55;;
48685;SDS011;34485;51.536;3.816;2022-09-09T09:00:57;4.35;;;2.17;;
48685;SDS011;34485;51.536;3.816;2022-09-09T09:03:49;9.02;;;3.25;;
48685;SDS011;34485;51.536;3.816;2022-09-09T09:06:22;4.43;;;2.20;;
48685;SDS011;34485;51.536;3.816;2022-09-09T09:11:37;6.97;;;3.05;;
48685;SDS011;34485;51.536;3.816;2022-09-09T09:14:11;4.88;;;2.40;;
48685;SDS011;34485;51.536;3.816;2022-09-09T09:16:58;7.40;;;2.95;;
48685;SDS011;34485;51.536;3.816;2022-09-09T09:19:39;5.87;;;2.37;;
48685;SDS011;34485;51.536;3.816;2022-09-09T09:22:19;4.93;;;2.00;;
48685;SDS011;34485;51.536;3.816;2022-09-09T09:25:04;8.75;;;2.58;;
48685;SDS011;34485;51.536;3.816;2022-09-09T09:27:49;8.27;;;2.35;;
48685;SDS011;34485;51.536;3.816;2022-09-09T09:30:26;5.97;;;2.55;;
48685;SDS011;34485;51.536;3.816;2022-09-09T09:32:58;6.53;;;1.77;;
48685;SDS011;34485;51.536;3.816;2022-09-09T09:35:31;6.97;;;2.28;;
48685;SDS011;34485;51.536;3.816;2022-09-09T09:37:57;5.57;;;2.22;;
48685;SDS011;34485;51.536;3.816;2022-09-09T09:40:25;6.10;;;2.57;;
48685;SDS011;34485;51.536;3.816;2022-09-09T09:42:52;4.88;;;1.98;;
48685;SDS011;34485;51.536;3.816;2022-09-09T09:47:57;6.33;;;1.57;;
48685;SDS011;34485;51.536;3.816;2022-09-09T09:50:28;2.78;;;1.40;;
48685;SDS011;34485;51.536;3.816;2022-09-09T09:52:57;4.50;;;2.28;;
48685;SDS011;34485;51.536;3.816;2022-09-09T09:55:31;4.95;;;2.42;;
48685;SDS011;34485;51.536;3.816;2022-09-09T09:58:00;8.30;;;2.65;;
48685;SDS011;34485;51.536;3.816;2022-09-09T10:00:31;5.10;;;1.60;;
48685;SDS011;34485;51.536;3.816;2022-09-09T10:02:57;4.00;;;2.03;;
48685;SDS011;34485;51.536;3.816;2022-09-09T10:05:26;3.40;;;1.83;;
48685;SDS011;34485;51.536;3.816;2022-09-09T10:08:15;11.02;;;1.92;;
48685;SDS011;34485;51.536;3.816;2022-09-09T10:13:15;6.73;;;1.80;;
48685;SDS011;34485;51.536;3.816;2022-09-09T10:21:12;4.20;;;1.67;;
48685;SDS011;34485;51.536;3.816;2022-09-09T10:24:21;3.53;;;2.05;;
48685;SDS011;34485;51.536;3.816;2022-09-09T10:32:46;3.95;;;2.20;;
48685;SDS011;34485;51.536;3.816;2022-09-09T10:41:00;4.97;;;2.53;;
48685;SDS011;34485;51.536;3.816;2022-09-09T10:54:56;6.45;;;3.22;;
48685;SDS011;34485;51.536;3.816;2022-09-09T10:57:41;6.45;;;2.80;;
48685;SDS011;34485;51.536;3.816;2022-09-09T11:02:41;5.27;;;2.50;;
48685;SDS011;34485;51.536;3.816;2022-09-09T11:08:08;7.75;;;2.78;;
48685;SDS011;34485;51.536;3.816;2022-09-09T11:10:48;10.32;;;2.90;;
48685;SDS011;34485;51.536;3.816;2022-09-09T11:13:37;6.80;;;3.53;;
48685;SDS011;34485;51.536;3.816;2022-09-09T11:18:31;5.28;;;3.00;;
48685;SDS011;34485;51.536;3.816;2022-09-09T11:21:03;5.13;;;4.13;;
48685;SDS011;34485;51.536;3.816;2022-09-09T11:26:04;6.13;;;4.03;;
48685;SDS011;34485;51.536;3.816;2022-09-09T11:41:38;6.17;;;3.13;;
48685;SDS011;34485;51.536;3.816;2022-09-09T11:44:17;4.63;;;2.63;;
48685;SDS011;34485;51.536;3.816;2022-09-09T11:46:43;5.13;;;2.50;;
48685;SDS011;34485;51.536;3.816;2022-09-09T11:54:50;5.33;;;3.10;;
48685;SDS011;34485;51.536;3.816;2022-09-09T11:57:22;8.95;;;3.10;;
48685;SDS011;34485;51.536;3.816;2022-09-09T11:59:51;4.45;;;2.80;;
48685;SDS011;34485;51.536;3.816;2022-09-09T12:04:57;6.32;;;3.45;;
48685;SDS011;34485;51.536;3.816;2022-09-09T12:07:31;6.77;;;3.63;;
48685;SDS011;34485;51.536;3.816;2022-09-09T12:12:35;10.20;;;3.90;;
48685;SDS011;34485;51.536;3.816;2022-09-09T12:17:52;5.13;;;3.13;;
48685;SDS011;34485;51.536;3.816;2022-09-09T12:20:21;4.45;;;2.17;;
48685;SDS011;34485;51.536;3.816;2022-09-09T12:23:22;6.53;;;2.22;;
48685;SDS011;34485;51.536;3.816;2022-09-09T12:26:05;9.13;;;2.40;;
48685;SDS011;34485;51.536;3.816;2022-09-09T12:29:03;4.30;;;2.70;;
48685;SDS011;34485;51.536;3.816;2022-09-09T12:31:51;6.10;;;2.80;;
48685;SDS011;34485;51.536;3.816;2022-09-09T12:34:40;5.82;;;3.08;;
48685;SDS011;34485;51.536;3.816;2022-09-09T12:40:01;6.22;;;2.63;;
48685;SDS011;34485;51.536;3.816;2022-09-09T12:42:29;6.30;;;2.37;;
48685;SDS011;34485;51.536;3.816;2022-09-09T12:44:56;3.60;;;2.35;;
48685;SDS011;34485;51.536;3.816;2022-09-09T12:50:16;8.93;;;3.03;;
48685;SDS011;34485;51.536;3.816;2022-09-09T12:52:43;6.35;;;3.03;;
48685;SDS011;34485;51.536;3.816;2022-09-09T12:55:16;10.63;;;2.27;;
48685;SDS011;34485;51.536;3.816;2022-09-09T12:57:46;6.95;;;2.53;;
48685;SDS011;34485;51.536;3.816;2022-09-09T13:00:18;9.80;;;2.65;;
48685;SDS011;34485;51.536;3.816;2022-09-09T13:02:51;7.03;;;2.35;;
48685;SDS011;34485;51.536;3.816;2022-09-09T13:05:23;11.55;;;3.00;;
48685;SDS011;34485;51.536;3.816;2022-09-09T13:07:49;5.70;;;1.80;;
48685;SDS011;34485;51.536;3.816;2022-09-09T13:10:19;4.80;;;2.60;;
48685;SDS011;34485;51.536;3.816;2022-09-09T13:12:49;4.53;;;2.60;;
48685;SDS011;34485;51.536;3.816;2022-09-09T13:15:24;11.80;;;2.40;;
48685;SDS011;34485;51.536;3.816;2022-09-09T13:17:57;4.43;;;2.43;;
48685;SDS011;34485;51.536;3.816;2022-09-09T13:20:26;8.50;;;2.97;;
48685;SDS011;34485;51.536;3.816;2022-09-09T13:22:53;12.40;;;2.63;;
48685;SDS011;34485;51.536;3.816;2022-09-09T13:27:57;7.70;;;3.28;;
48685;SDS011;34485;51.536;3.816;2022-09-09T13:33:00;6.47;;;2.70;;
48685;SDS011;34485;51.536;3.816;2022-09-09T13:35:30;5.88;;;2.88;;
48685;SDS011;34485;51.536;3.816;2022-09-09T13:37:57;5.28;;;3.20;;
48685;SDS011;34485;51.536;3.816;2022-09-09T13:40:24;3.60;;;2.97;;
48685;SDS011;34485;51.536;3.816;2022-09-09T13:42:51;6.40;;;3.33;;
48685;SDS011;34485;51.536;3.816;2022-09-09T13:45:22;6.35;;;3.28;;
48685;SDS011;34485;51.536;3.816;2022-09-09T13:47:51;10.43;;;3.35;;
48685;SDS011;34485;51.536;3.816;2022-09-09T13:50:27;8.95;;;4.00;;
48685;SDS011;34485;51.536;3.816;2022-09-09T13:52:57;4.13;;;3.67;;
48685;SDS011;34485;51.536;3.816;2022-09-09T13:55:25;6.60;;;3.55;;
48685;SDS011;34485;51.536;3.816;2022-09-09T13:57:59;9.20;;;4.22;;
48685;SDS011;34485;51.536;3.816;2022-09-09T14:00:28;5.75;;;3.28;;
48685;SDS011;34485;51.536;3.816;2022-09-09T14:02:54;5.43;;;3.10;;
48685;SDS011;34485;51.536;3.816;2022-09-09T14:05:20;4.40;;;3.10;;
48685;SDS011;34485;51.536;3.816;2022-09-09T14:07:47;7.25;;;2.90;;
48685;SDS011;34485;51.536;3.816;2022-09-09T14:10:13;9.38;;;4.32;;
48685;SDS011;34485;51.536;3.816;2022-09-09T14:12:38;10.83;;;4.07;;
48685;SDS011;34485;51.536;3.816;2022-09-09T14:15:05;6.95;;;4.30;;
48685;SDS011;34485;51.536;3.816;2022-09-09T14:17:32;7.97;;;4.90;;
48685;SDS011;34485;51.536;3.816;2022-09-09T14:19:58;7.05;;;4.53;;
48685;SDS011;34485;51.536;3.816;2022-09-09T14:22:24;11.05;;;4.28;;
48685;SDS011;34485;51.536;3.816;2022-09-09T14:24:50;11.02;;;3.70;;
48685;SDS011;34485;51.536;3.816;2022-09-09T14:27:16;5.90;;;3.13;;
48685;SDS011;34485;51.536;3.816;2022-09-09T14:29:43;5.47;;;3.17;;
48685;SDS011;34485;51.536;3.816;2022-09-09T14:32:10;7.75;;;2.88;;
48685;SDS011;34485;51.536;3.816;2022-09-09T14:34:36;6.97;;;3.42;;
48685;SDS011;34485;51.536;3.816;2022-09-09T14:37:02;3.93;;;2.87;;
48685;SDS011;34485;51.536;3.816;2022-09-09T14:39:28;6.70;;;3.05;;
48685;SDS011;34485;51.536;3.816;2022-09-09T14:41:53;8.33;;;4.03;;
48685;SDS011;34485;51.536;3.816;2022-09-09T14:44:19;8.73;;;2.65;;
48685;SDS011;34485;51.536;3.816;2022-09-09T14:46:45;10.07;;;3.37;;
48685;SDS011;34485;51.536;3.816;2022-09-09T14:49:11;6.63;;;3.33;;
48685;SDS011;34485;51.536;3.816;2022-09-09T14:51:37;7.85;;;2.90;;
48685;SDS011;34485;51.536;3.816;2022-09-09T14:54:03;11.17;;;3.37;;
48685;SDS011;34485;51.536;3.816;2022-09-09T14:56:29;9.60;;;3.58;;
48685;SDS011;34485;51.536;3.816;2022-09-09T14:58:58;8.18;;;3.88;;
48685;SDS011;34485;51.536;3.816;2022-09-09T15:01:26;6.53;;;3.07;;
48685;SDS011;34485;51.536;3.816;2022-09-09T15:03:53;8.73;;;3.85;;
48685;SDS011;34485;51.536;3.816;2022-09-09T15:06:20;4.53;;;3.20;;
48685;SDS011;34485;51.536;3.816;2022-09-09T15:08:49;7.63;;;3.22;;
48685;SDS011;34485;51.536;3.816;2022-09-09T15:11:17;7.30;;;2.90;;
48685;SDS011;34485;51.536;3.816;2022-09-09T15:13:43;12.53;;;3.03;;
48685;SDS011;34485;51.536;3.816;2022-09-09T15:16:10;10.48;;;2.45;;
48685;SDS011;34485;51.536;3.816;2022-09-09T15:18:40;4.47;;;1.80;;
48685;SDS011;34485;51.536;3.816;2022-09-09T15:21:07;5.80;;;2.40;;
48685;SDS011;34485;51.536;3.816;2022-09-09T15:23:34;7.60;;;2.83;;
48685;SDS011;34485;51.536;3.816;2022-09-09T15:26:00;9.60;;;2.97;;
48685;SDS011;34485;51.536;3.816;2022-09-09T15:28:26;7.63;;;2.75;;
48685;SDS011;34485;51.536;3.816;2022-09-09T15:30:52;7.65;;;2.42;;
48685;SDS011;34485;51.536;3.816;2022-09-09T15:33:19;5.47;;;3.30;;
48685;SDS011;34485;51.536;3.816;2022-09-09T15:35:46;4.65;;;3.00;;
48685;SDS011;34485;51.536;3.816;2022-09-09T15:38:12;5.25;;;2.67;;
48685;SDS011;34485;51.536;3.816;2022-09-09T15:40:38;8.07;;;3.10;;
48685;SDS011;34485;51.536;3.816;2022-09-09T15:43:05;8.10;;;3.40;;
48685;SDS011;34485;51.536;3.816;2022-09-09T15:45:31;5.65;;;3.00;;
48685;SDS011;34485;51.536;3.816;2022-09-09T15:47:58;5.15;;;3.05;;
48685;SDS011;34485;51.536;3.816;2022-09-09T15:50:25;4.57;;;2.03;;
48685;SDS011;34485;51.536;3.816;2022-09-09T15:52:51;3.93;;;1.77;;
48685;SDS011;34485;51.536;3.816;2022-09-09T15:55:18;8.55;;;2.33;;
48685;SDS011;34485;51.536;3.816;2022-09-09T15:57:45;7.25;;;2.03;;
48685;SDS011;34485;51.536;3.816;2022-09-09T16:00:11;7.07;;;2.25;;
48685;SDS011;34485;51.536;3.816;2022-09-09T16:02:38;6.82;;;2.20;;
48685;SDS011;34485;51.536;3.816;2022-09-09T16:05:03;4.87;;;2.97;;
48685;SDS011;34485;51.536;3.816;2022-09-09T16:07:30;6.80;;;2.50;;
48685;SDS011;34485;51.536;3.816;2022-09-09T16:09:55;5.10;;;3.10;;
48685;SDS011;34485;51.536;3.816;2022-09-09T16:12:21;5.40;;;2.53;;
48685;SDS011;34485;51.536;3.816;2022-09-09T16:14:47;7.10;;;3.63;;
48685;SDS011;34485;51.536;3.816;2022-09-09T16:17:12;5.40;;;2.67;;
48685;SDS011;34485;51.536;3.816;2022-09-09T16:19:39;9.60;;;3.30;;
48685;SDS011;34485;51.536;3.816;2022-09-09T16:22:05;6.00;;;2.90;;
48685;SDS011;34485;51.536;3.816;2022-09-09T16:24:31;3.78;;;3.03;;
48685;SDS011;34485;51.536;3.816;2022-09-09T16:26:58;6.00;;;3.22;;
48685;SDS011;34485;51.536;3.816;2022-09-09T16:29:23;13.83;;;3.73;;
48685;SDS011;34485;51.536;3.816;2022-09-09T16:31:52;9.10;;;3.88;;
48685;SDS011;34485;51.536;3.816;2022-09-09T16:34:18;5.40;;;3.33;;
48685;SDS011;34485;51.536;3.816;2022-09-09T16:36:45;10.85;;;3.97;;
48685;SDS011;34485;51.536;3.816;2022-09-09T16:39:13;4.10;;;3.25;;
48685;SDS011;34485;51.536;3.816;2022-09-09T16:41:41;8.33;;;2.87;;
48685;SDS011;34485;51.536;3.816;2022-09-09T16:44:10;6.32;;;2.85;;
48685;SDS011;34485;51.536;3.816;2022-09-09T16:46:37;6.93;;;3.10;;
48685;SDS011;34485;51.536;3.816;2022-09-09T16:49:05;8.60;;;3.55;;
48685;SDS011;34485;51.536;3.816;2022-09-09T16:51:33;4.25;;;2.95;;
48685;SDS011;34485;51.536;3.816;2022-09-09T16:54:01;3.13;;;2.67;;
48685;SDS011;34485;51.536;3.816;2022-09-09T16:56:29;5.85;;;2.25;;
48685;SDS011;34485;51.536;3.816;2022-09-09T16:58:58;8.88;;;3.47;;
48685;SDS011;34485;51.536;3.816;2022-09-09T17:01:26;6.20;;;3.28;;
48685;SDS011;34485;51.536;3.816;2022-09-09T17:03:57;5.30;;;2.30;;
48685;SDS011;34485;51.536;3.816;2022-09-09T17:06:28;6.80;;;2.67;;
48685;SDS011;34485;51.536;3.816;2022-09-09T17:08:56;5.45;;;2.15;;
48685;SDS011;34485;51.536;3.816;2022-09-09T17:11:22;5.03;;;2.25;;
48685;SDS011;34485;51.536;3.816;2022-09-09T17:13:49;7.45;;;2.20;;
48685;SDS011;34485;51.536;3.816;2022-09-09T17:16:16;7.13;;;3.03;;
48685;SDS011;34485;51.536;3.816;2022-09-09T17:18:42;3.70;;;2.00;;
48685;SDS011;34485;51.536;3.816;2022-09-09T17:21:12;4.57;;;1.92;;
48685;SDS011;34485;51.536;3.816;2022-09-09T17:23:39;8.43;;;2.60;;
48685;SDS011;34485;51.536;3.816;2022-09-09T17:26:07;4.85;;;2.28;;
48685;SDS011;34485;51.536;3.816;2022-09-09T17:28:37;5.57;;;2.17;;